Terminal Aerodrome Forecast
Issued by NWS

Home | Current Version | Previous Version | Text Only | Print | Product List | Glossary On
Versions: 1 2 3 4 5 6 7 8 9 10 11 12 13 14 15 16 17
880
FTUS41 KLWX 191736
TAFMTN
TAF
KMTN 191736Z 1918/2018 17005KT 2SM -DZ BR BKN010 OVC025
     FM200000 18004KT 2SM -DZ BR BKN008 OVC025
     FM200300 18004KT 4SM -DZ BR OVC025
     FM200500 21006KT 3SM -DZ BR BKN010 BKN025 WS020/23035KT
     FM201500 20008KT 6SM BR SCT025 BKN080=

USA.gov is the U.S. government's official web portal to all federal, state and local government web resources and services.